Time;durP1;ratioP1;P1;durP2;ratioP2;P2;SDS_P1;SDS_P2;PMS_P1;PMS_P2;Temp;Humidity;BMP_temperature;BMP_pressure;BME280_temperature;BME280_humidity;BME280_pressure;Samples;Min_cycle;Max_cycle;Signal;HPM_P1;HPM_P2
2023/10/29 00:00:55;;;;;;;3.40;2.27;;;;;;;;;;5109014;28;20606;-64
2023/10/29 00:03:22;;;;;;;3.57;2.07;;;;;;;;;;5106513;27;20450;-64
2023/10/29 00:05:48;;;;;;;2.53;2.17;;;;;;;;;;5112694;28;20481;-64
2023/10/29 00:08:15;;;;;;;4.83;2.30;;;;;;;;;;5121810;27;20472;-64
2023/10/29 00:10:41;;;;;;;4.20;2.83;;;;;;;;;;5111342;27;20462;-64
2023/10/29 00:13:09;;;;;;;4.13;1.90;;;;;;;;;;5115964;28;20900;-64
2023/10/29 00:15:36;;;;;;;2.37;1.47;;;;;;;;;;5108080;28;20594;-64
2023/10/29 00:18:05;;;;;;;2.07;1.30;;;;;;;;;;5122472;27;20513;-64
2023/10/29 00:20:32;;;;;;;1.90;1.53;;;;;;;;;;5112935;27;20454;-64
2023/10/29 00:22:59;;;;;;;4.67;2.60;;;;;;;;;;5117214;27;20509;-64
2023/10/29 00:25:25;;;;;;;1.73;1.60;;;;;;;;;;5124637;27;20502;-64
2023/10/29 00:27:54;;;;;;;4.20;1.83;;;;;;;;;;5107517;28;20461;-64
2023/10/29 00:30:22;;;;;;;1.27;1.17;;;;;;;;;;5115894;27;20470;-64
2023/10/29 00:32:49;;;;;;;2.07;1.30;;;;;;;;;;5114944;27;20476;-64
2023/10/29 00:35:15;;;;;;;2.83;1.10;;;;;;;;;;5117199;27;20481;-65
2023/10/29 00:37:42;;;;;;;1.43;1.33;;;;;;;;;;5112392;27;20455;-65
2023/10/29 00:40:09;;;;;;;1.70;1.60;;;;;;;;;;5113052;27;20486;-64
2023/10/29 00:42:35;;;;;;;1.60;1.50;;;;;;;;;;5120153;27;20434;-64
2023/10/29 00:45:02;;;;;;;2.20;1.03;;;;;;;;;;5123774;27;20557;-64
2023/10/29 00:47:30;;;;;;;1.23;1.10;;;;;;;;;;5116307;27;20973;-65
2023/10/29 00:49:56;;;;;;;1.30;1.20;;;;;;;;;;5114286;27;20522;-64
2023/10/29 00:52:23;;;;;;;1.63;1.50;;;;;;;;;;5109695;27;20484;-65
2023/10/29 00:54:50;;;;;;;1.23;1.10;;;;;;;;;;5128478;27;20528;-64
2023/10/29 00:57:16;;;;;;;1.33;1.23;;;;;;;;;;5110232;28;20474;-64
2023/10/29 00:59:43;;;;;;;1.77;1.03;;;;;;;;;;5115470;28;20478;-64
2023/10/29 01:02:09;;;;;;;1.43;1.33;;;;;;;;;;5115111;27;20475;-64
2023/10/29 01:04:37;;;;;;;2.37;1.07;;;;;;;;;;5110909;28;20478;-64
2023/10/29 01:07:04;;;;;;;1.60;1.50;;;;;;;;;;5111509;28;20454;-64
2023/10/29 01:09:31;;;;;;;1.67;1.33;;;;;;;;;;5125317;27;20481;-64
2023/10/29 01:11:57;;;;;;;5.33;1.60;;;;;;;;;;5119539;27;20756;-65
2023/10/29 01:14:24;;;;;;;6.73;1.83;;;;;;;;;;5119588;27;20475;-64
2023/10/29 01:16:51;;;;;;;3.17;1.70;;;;;;;;;;5112232;27;20453;-64
2023/10/29 01:19:17;;;;;;;5.60;1.50;;;;;;;;;;5129284;27;20469;-64
2023/10/29 01:21:46;;;;;;;1.70;1.60;;;;;;;;;;5125705;27;20481;-65
2023/10/29 01:24:12;;;;;;;1.50;1.33;;;;;;;;;;5113457;27;20505;-65
2023/10/29 01:26:39;;;;;;;2.30;2.10;;;;;;;;;;5118198;27;20472;-65
2023/10/29 01:29:05;;;;;;;1.20;1.10;;;;;;;;;;5111344;28;20509;-65
2023/10/29 01:31:32;;;;;;;2.33;1.50;;;;;;;;;;5109243;28;20477;-64
2023/10/29 01:33:58;;;;;;;1.50;1.40;;;;;;;;;;5110888;28;20450;-64
2023/10/29 01:36:24;;;;;;;1.90;1.60;;;;;;;;;;5117600;27;20539;-64
2023/10/29 01:38:52;;;;;;;1.73;1.63;;;;;;;;;;5123015;27;20474;-64
2023/10/29 01:41:24;;;;;;;2.53;1.37;;;;;;;;;;5115548;27;20451;-65
2023/10/29 01:43:50;;;;;;;1.23;1.13;;;;;;;;;;5114213;27;20442;-64
2023/10/29 01:46:17;;;;;;;1.50;1.30;;;;;;;;;;5119142;27;20504;-64
2023/10/29 01:48:43;;;;;;;1.93;1.40;;;;;;;;;;5111480;27;20489;-64
2023/10/29 01:51:10;;;;;;;2.30;1.57;;;;;;;;;;5112957;27;20913;-64
2023/10/29 01:53:36;;;;;;;1.80;1.50;;;;;;;;;;5123376;27;20514;-64
2023/10/29 01:56:08;;;;;;;2.90;2.40;;;;;;;;;;5118672;27;20495;-64
2023/10/29 01:58:34;;;;;;;1.73;1.60;;;;;;;;;;5102126;27;20451;-64
2023/10/29 02:01:01;;;;;;;1.40;1.30;;;;;;;;;;5120460;27;20457;-64
2023/10/29 02:03:27;;;;;;;1.97;1.40;;;;;;;;;;5127631;27;20509;-64
2023/10/29 02:05:54;;;;;;;3.10;1.30;;;;;;;;;;5123239;27;20482;-64
2023/10/29 02:08:21;;;;;;;1.30;1.20;;;;;;;;;;5118623;27;20443;-64
2023/10/29 02:10:47;;;;;;;2.43;1.23;;;;;;;;;;5110148;28;20904;-64
2023/10/29 02:13:16;;;;;;;2.07;1.37;;;;;;;;;;5115531;27;20508;-64
2023/10/29 02:15:43;;;;;;;1.40;1.30;;;;;;;;;;5104265;28;20474;-64
2023/10/29 02:18:11;;;;;;;1.40;1.20;;;;;;;;;;5112892;27;20507;-64
2023/10/29 02:20:38;;;;;;;1.50;1.20;;;;;;;;;;5114956;28;20464;-64
2023/10/29 02:23:05;;;;;;;1.50;1.20;;;;;;;;;;5106707;27;20445;-64
2023/10/29 02:25:32;;;;;;;1.50;1.40;;;;;;;;;;5111545;28;21399;-64
2023/10/29 02:27:58;;;;;;;2.10;1.47;;;;;;;;;;5122907;28;20461;-64
2023/10/29 02:30:25;;;;;;;2.87;1.27;;;;;;;;;;5110349;27;20480;-65
2023/10/29 02:32:51;;;;;;;1.40;1.03;;;;;;;;;;5128069;27;20449;-64
2023/10/29 02:35:17;;;;;;;1.07;1.00;;;;;;;;;;5116578;28;20489;-64
2023/10/29 02:37:44;;;;;;;3.60;1.40;;;;;;;;;;5112007;28;20478;-64
2023/10/29 02:40:12;;;;;;;1.70;1.30;;;;;;;;;;5103440;28;20573;-64
2023/10/29 02:42:39;;;;;;;1.37;1.20;;;;;;;;;;5114902;28;20443;-65
2023/10/29 02:45:05;;;;;;;1.90;1.30;;;;;;;;;;5107433;28;20897;-65
2023/10/29 02:47:32;;;;;;;2.83;1.10;;;;;;;;;;5113141;28;20477;-64
2023/10/29 02:49:58;;;;;;;2.43;1.40;;;;;;;;;;5115971;28;20514;-64
2023/10/29 02:52:25;;;;;;;2.60;1.20;;;;;;;;;;5113024;28;20459;-64
2023/10/29 02:54:51;;;;;;;2.70;1.20;;;;;;;;;;5110376;28;20487;-64
2023/10/29 02:57:19;;;;;;;2.67;1.30;;;;;;;;;;5119875;28;20443;-64
2023/10/29 02:59:45;;;;;;;1.20;1.10;;;;;;;;;;5112579;28;20525;-64
2023/10/29 03:02:11;;;;;;;1.90;1.30;;;;;;;;;;5111583;28;20679;-64
2023/10/29 03:04:38;;;;;;;1.27;1.00;;;;;;;;;;5120259;28;20536;-65
2023/10/29 03:07:06;;;;;;;1.50;1.40;;;;;;;;;;5108027;28;20489;-65
2023/10/29 03:09:33;;;;;;;1.20;1.10;;;;;;;;;;5111097;28;20485;-65
2023/10/29 03:12:00;;;;;;;2.30;1.30;;;;;;;;;;5126305;28;20501;-64
2023/10/29 03:14:27;;;;;;;1.87;1.03;;;;;;;;;;5112679;28;20480;-65
2023/10/29 03:16:56;;;;;;;2.17;1.30;;;;;;;;;;5112635;28;20517;-64
2023/10/29 03:19:23;;;;;;;1.40;1.30;;;;;;;;;;5115480;28;21151;-64
2023/10/29 03:21:49;;;;;;;3.43;0.90;;;;;;;;;;5117429;28;20511;-65
2023/10/29 03:24:15;;;;;;;1.10;1.00;;;;;;;;;;5114853;28;20493;-64
2023/10/29 03:26:42;;;;;;;3.20;2.00;;;;;;;;;;5112637;28;20443;-64
2023/10/29 03:29:08;;;;;;;1.47;0.87;;;;;;;;;;5116121;28;20473;-64
2023/10/29 03:31:37;;;;;;;1.07;1.00;;;;;;;;;;5122706;28;20446;-64
2023/10/29 03:34:03;;;;;;;1.17;1.00;;;;;;;;;;5113050;28;20471;-64
2023/10/29 03:36:29;;;;;;;1.77;1.20;;;;;;;;;;5105530;28;20724;-65
2023/10/29 03:38:56;;;;;;;6.60;1.10;;;;;;;;;;5117264;28;20469;-64
2023/10/29 03:41:23;;;;;;;3.00;1.60;;;;;;;;;;5115892;28;20483;-64
2023/10/29 03:43:50;;;;;;;1.63;1.17;;;;;;;;;;5117386;27;20454;-64
2023/10/29 03:46:16;;;;;;;1.70;1.10;;;;;;;;;;5116151;28;20440;-64
2023/10/29 03:48:45;;;;;;;1.17;0.90;;;;;;;;;;5114905;27;20454;-64
2023/10/29 03:51:12;;;;;;;2.13;1.30;;;;;;;;;;5125952;27;20481;-64
2023/10/29 03:53:38;;;;;;;1.00;0.73;;;;;;;;;;5118671;27;20489;-65
2023/10/29 03:56:05;;;;;;;1.90;1.40;;;;;;;;;;5119111;27;20486;-64
2023/10/29 03:58:32;;;;;;;1.73;1.10;;;;;;;;;;5107184;27;20466;-65
2023/10/29 04:00:58;;;;;;;2.57;1.10;;;;;;;;;;5122119;27;20525;-64
2023/10/29 04:03:25;;;;;;;2.20;1.20;;;;;;;;;;5113849;27;20470;-65
2023/10/29 04:05:52;;;;;;;1.00;0.90;;;;;;;;;;5123411;27;20477;-64
2023/10/29 04:08:19;;;;;;;4.77;1.20;;;;;;;;;;5118279;27;20515;-65
2023/10/29 04:10:46;;;;;;;1.43;0.90;;;;;;;;;;5104192;28;20470;-65
2023/10/29 04:13:12;;;;;;;4.60;1.33;;;;;;;;;;5110792;27;20470;-65
2023/10/29 04:15:39;;;;;;;1.80;0.97;;;;;;;;;;5115779;28;20513;-65
2023/10/29 04:18:05;;;;;;;1.43;1.00;;;;;;;;;;5112346;27;20451;-64
2023/10/29 04:20:32;;;;;;;1.20;1.10;;;;;;;;;;5115916;28;20454;-64
2023/10/29 04:22:59;;;;;;;1.87;1.30;;;;;;;;;;5120938;27;20494;-64
2023/10/29 04:25:26;;;;;;;1.03;0.83;;;;;;;;;;5112889;27;20516;-65
2023/10/29 04:27:52;;;;;;;1.40;0.97;;;;;;;;;;5116672;28;20473;-64
2023/10/29 04:30:19;;;;;;;1.10;1.00;;;;;;;;;;5114905;27;20478;-64
2023/10/29 04:32:45;;;;;;;1.33;1.23;;;;;;;;;;5119113;27;20480;-64
2023/10/29 04:35:12;;;;;;;4.33;1.37;;;;;;;;;;5114880;27;20587;-64
2023/10/29 04:37:38;;;;;;;1.67;1.00;;;;;;;;;;5113901;27;20527;-64
2023/10/29 04:40:07;;;;;;;6.80;1.10;;;;;;;;;;5112870;27;20566;-64
2023/10/29 04:42:35;;;;;;;0.80;0.80;;;;;;;;;;5113330;27;20450;-64
2023/10/29 04:45:01;;;;;;;1.37;1.27;;;;;;;;;;5116773;28;20478;-64
2023/10/29 04:47:27;;;;;;;1.40;1.30;;;;;;;;;;5121813;27;20441;-64
2023/10/29 04:49:54;;;;;;;2.40;1.27;;;;;;;;;;5117549;27;20528;-64
2023/10/29 04:52:20;;;;;;;1.30;1.20;;;;;;;;;;5115484;27;20518;-65
2023/10/29 04:54:47;;;;;;;1.23;1.10;;;;;;;;;;5113929;28;20523;-64
2023/10/29 04:57:19;;;;;;;2.03;1.40;;;;;;;;;;5105845;28;20525;-64
2023/10/29 04:59:46;;;;;;;1.13;1.00;;;;;;;;;;5113661;27;20522;-64
2023/10/29 05:02:12;;;;;;;1.60;1.00;;;;;;;;;;5116610;27;20474;-64
2023/10/29 05:04:39;;;;;;;2.00;1.23;;;;;;;;;;5119963;27;20475;-64
2023/10/29 05:07:05;;;;;;;3.80;1.30;;;;;;;;;;5108351;27;20496;-64
2023/10/29 05:09:31;;;;;;;1.20;1.10;;;;;;;;;;5125638;27;20473;-65
2023/10/29 05:11:58;;;;;;;1.83;1.07;;;;;;;;;;5117324;28;20450;-64
2023/10/29 05:14:25;;;;;;;1.37;1.10;;;;;;;;;;5119310;27;20485;-64
2023/10/29 05:16:52;;;;;;;6.00;1.30;;;;;;;;;;5120313;27;20470;-64
2023/10/29 05:19:19;;;;;;;2.20;0.93;;;;;;;;;;5112312;27;20526;-64
2023/10/29 05:21:45;;;;;;;2.60;1.23;;;;;;;;;;5115101;27;20473;-64
2023/10/29 05:24:12;;;;;;;1.77;1.07;;;;;;;;;;5120119;27;20515;-64
2023/10/29 05:26:38;;;;;;;2.00;1.03;;;;;;;;;;5109526;27;20494;-64
2023/10/29 05:29:04;;;;;;;1.77;1.60;;;;;;;;;;5119005;27;20477;-64
2023/10/29 05:31:33;;;;;;;1.43;1.27;;;;;;;;;;5118584;27;20446;-64
2023/10/29 05:33:59;;;;;;;1.23;1.13;;;;;;;;;;5119191;27;20505;-64
2023/10/29 05:36:26;;;;;;;1.20;1.10;;;;;;;;;;5120535;27;20973;-64
2023/10/29 05:38:52;;;;;;;1.87;1.23;;;;;;;;;;5118537;27;20572;-64
2023/10/29 05:41:19;;;;;;;1.20;0.93;;;;;;;;;;5110545;28;20458;-64
2023/10/29 05:43:45;;;;;;;2.03;1.47;;;;;;;;;;5118210;27;20449;-65
2023/10/29 05:46:12;;;;;;;1.40;1.03;;;;;;;;;;5111427;27;20473;-65
2023/10/29 05:48:40;;;;;;;1.17;1.07;;;;;;;;;;5112189;27;20473;-65
2023/10/29 05:51:06;;;;;;;9.40;4.30;;;;;;;;;;5119830;27;20457;-65
2023/10/29 05:53:33;;;;;;;1.30;1.20;;;;;;;;;;5113035;27;20462;-65
2023/10/29 05:55:59;;;;;;;3.30;1.80;;;;;;;;;;5116141;27;20492;-64
2023/10/29 05:58:26;;;;;;;1.30;1.20;;;;;;;;;;5119079;27;20449;-64
2023/10/29 06:00:52;;;;;;;2.27;1.27;;;;;;;;;;5113683;27;20503;-64
2023/10/29 06:03:18;;;;;;;2.37;1.10;;;;;;;;;;5110381;28;20548;-64
2023/10/29 06:05:46;;;;;;;1.17;1.07;;;;;;;;;;5116743;27;21478;-64
2023/10/29 06:08:13;;;;;;;1.73;1.60;;;;;;;;;;5122787;27;20485;-64
2023/10/29 06:10:39;;;;;;;2.50;1.40;;;;;;;;;;5110614;27;20508;-63
2023/10/29 06:13:05;;;;;;;2.10;1.53;;;;;;;;;;5119766;27;20476;-64
2023/10/29 06:15:32;;;;;;;1.50;1.10;;;;;;;;;;5118289;27;20463;-64
2023/10/29 06:17:58;;;;;;;2.23;1.17;;;;;;;;;;5118132;27;20936;-64
2023/10/29 06:20:27;;;;;;;2.20;1.70;;;;;;;;;;5116797;27;20469;-64
2023/10/29 06:22:54;;;;;;;2.30;1.30;;;;;;;;;;5113677;28;20466;-64
2023/10/29 06:25:21;;;;;;;1.60;1.27;;;;;;;;;;5113654;27;20513;-64
2023/10/29 06:27:47;;;;;;;3.03;1.20;;;;;;;;;;5103969;28;20519;-64
2023/10/29 06:30:14;;;;;;;2.17;1.20;;;;;;;;;;5104707;27;21007;-64
2023/10/29 06:32:40;;;;;;;1.27;1.10;;;;;;;;;;5108684;28;20887;-64
2023/10/29 06:35:07;;;;;;;1.60;1.27;;;;;;;;;;5112927;28;20603;-64
2023/10/29 06:37:33;;;;;;;1.40;1.17;;;;;;;;;;5116678;28;20609;-64
2023/10/29 06:40:03;;;;;;;1.80;1.50;;;;;;;;;;5112132;28;20446;-64
2023/10/29 06:42:29;;;;;;;1.33;1.23;;;;;;;;;;5113608;28;20470;-64
2023/10/29 06:44:56;;;;;;;2.03;1.40;;;;;;;;;;5111226;28;20502;-67
2023/10/29 06:47:22;;;;;;;1.33;1.23;;;;;;;;;;5114739;28;20518;-71
2023/10/29 06:49:50;;;;;;;1.40;1.30;;;;;;;;;;5112404;28;20469;-73
2023/10/29 06:52:16;;;;;;;2.23;1.10;;;;;;;;;;5106579;28;20462;-67
2023/10/29 06:54:42;;;;;;;1.30;1.10;;;;;;;;;;5116299;28;20468;-71
2023/10/29 06:57:10;;;;;;;1.90;1.10;;;;;;;;;;5114167;28;20542;-66
2023/10/29 06:59:37;;;;;;;1.10;0.93;;;;;;;;;;5130283;28;20464;-66
2023/10/29 07:02:03;;;;;;;2.17;1.37;;;;;;;;;;5117654;28;20514;-67
2023/10/29 07:04:30;;;;;;;1.23;1.13;;;;;;;;;;5119079;28;20942;-70
2023/10/29 07:06:56;;;;;;;1.17;1.07;;;;;;;;;;5113074;28;20455;-65
2023/10/29 07:09:23;;;;;;;0.90;0.90;;;;;;;;;;5105421;28;20471;-71
2023/10/29 07:11:51;;;;;;;1.30;1.20;;;;;;;;;;5116309;28;20506;-62
2023/10/29 07:14:19;;;;;;;1.60;1.50;;;;;;;;;;5120229;27;20988;-71
2023/10/29 07:16:46;;;;;;;1.60;1.47;;;;;;;;;;5107070;27;20485;-69
2023/10/29 07:19:12;;;;;;;3.03;1.97;;;;;;;;;;5110016;28;20484;-69
2023/10/29 07:21:39;;;;;;;1.67;1.57;;;;;;;;;;5116708;27;20506;-71
2023/10/29 07:24:05;;;;;;;2.90;1.70;;;;;;;;;;5119132;27;20511;-69
2023/10/29 07:26:33;;;;;;;1.70;1.60;;;;;;;;;;5117465;27;20547;-71
2023/10/29 07:28:59;;;;;;;2.00;1.60;;;;;;;;;;5119819;27;20447;-71
2023/10/29 07:31:27;;;;;;;1.60;1.50;;;;;;;;;;5122202;27;20488;-69
2023/10/29 07:33:53;;;;;;;1.67;1.40;;;;;;;;;;5117478;27;20449;-70
2023/10/29 07:36:20;;;;;;;2.27;1.80;;;;;;;;;;5120671;27;20502;-69
2023/10/29 07:38:47;;;;;;;1.93;1.77;;;;;;;;;;5116756;27;20462;-70
2023/10/29 07:41:18;;;;;;;1.60;1.50;;;;;;;;;;5125332;27;20487;-70
2023/10/29 07:43:44;;;;;;;2.10;1.90;;;;;;;;;;5125808;27;20508;-68
2023/10/29 07:46:10;;;;;;;1.90;1.80;;;;;;;;;;5123841;27;20469;-69
2023/10/29 07:48:38;;;;;;;2.00;1.60;;;;;;;;;;5133496;27;20881;-69
2023/10/29 07:51:05;;;;;;;3.10;1.50;;;;;;;;;;5111996;28;20481;-70
2023/10/29 07:53:31;;;;;;;2.53;1.90;;;;;;;;;;5130163;27;20506;-69
2023/10/29 07:56:06;;;;;;;1.70;1.60;;;;;;;;;;5108414;28;20462;-69
2023/10/29 07:58:32;;;;;;;1.80;1.70;;;;;;;;;;5116215;28;20445;-70
2023/10/29 08:00:59;;;;;;;2.00;1.63;;;;;;;;;;5116198;27;20903;-70
2023/10/29 08:03:25;;;;;;;2.60;1.90;;;;;;;;;;5112626;27;20476;-70
2023/10/29 08:05:54;;;;;;;2.47;1.90;;;;;;;;;;5116608;27;20848;-70
2023/10/29 08:08:20;;;;;;;1.87;1.77;;;;;;;;;;5114902;27;20449;-70
2023/10/29 08:10:47;;;;;;;4.03;2.10;;;;;;;;;;5119326;27;20496;-69
2023/10/29 08:13:13;;;;;;;4.40;2.80;;;;;;;;;;5110943;27;20519;-68
2023/10/29 08:15:40;;;;;;;3.47;2.43;;;;;;;;;;5119445;27;20473;-69
2023/10/29 08:18:06;;;;;;;1.97;1.80;;;;;;;;;;5119046;27;20517;-69
2023/10/29 08:20:33;;;;;;;1.90;1.73;;;;;;;;;;5115363;27;20481;-69
2023/10/29 08:23:01;;;;;;;2.10;2.00;;;;;;;;;;5112238;28;20484;-69
2023/10/29 08:25:27;;;;;;;2.20;2.10;;;;;;;;;;5116105;27;20482;-69
2023/10/29 08:27:54;;;;;;;2.17;1.97;;;;;;;;;;5117929;27;20450;-68
2023/10/29 08:30:20;;;;;;;3.73;2.43;;;;;;;;;;5130397;27;20479;-69
2023/10/29 08:32:46;;;;;;;2.30;2.20;;;;;;;;;;5115698;27;20459;-72
2023/10/29 08:35:13;;;;;;;2.10;2.00;;;;;;;;;;5118774;27;20885;-69
2023/10/29 08:37:40;;;;;;;2.60;2.23;;;;;;;;;;5112682;27;20532;-70
2023/10/29 08:40:11;;;;;;;2.73;2.30;;;;;;;;;;5123637;27;20449;-69
2023/10/29 08:42:38;;;;;;;2.67;2.47;;;;;;;;;;5118061;27;20873;-71
2023/10/29 08:45:05;;;;;;;3.03;2.83;;;;;;;;;;5108179;28;21048;-70
2023/10/29 08:47:32;;;;;;;2.53;2.30;;;;;;;;;;5122836;27;20465;-69
2023/10/29 08:49:58;;;;;;;2.60;2.50;;;;;;;;;;5116770;27;20497;-69
2023/10/29 08:52:25;;;;;;;2.30;2.10;;;;;;;;;;5116845;27;20843;-69
2023/10/29 08:54:51;;;;;;;3.23;2.60;;;;;;;;;;5111790;27;20485;-69
2023/10/29 08:57:21;;;;;;;4.37;2.20;;;;;;;;;;5121702;27;20508;-69
2023/10/29 08:59:49;;;;;;;2.50;2.40;;;;;;;;;;5120436;27;20485;-69
2023/10/29 09:02:16;;;;;;;4.10;3.80;;;;;;;;;;5127441;27;20448;-71
2023/10/29 09:04:42;;;;;;;2.73;2.63;;;;;;;;;;5119320;27;20454;-71
2023/10/29 09:07:09;;;;;;;2.77;2.57;;;;;;;;;;5125414;27;20491;-69
2023/10/29 09:09:36;;;;;;;2.50;2.30;;;;;;;;;;5122341;27;20484;-69
2023/10/29 09:12:02;;;;;;;3.20;3.00;;;;;;;;;;5114513;27;20455;-69
2023/10/29 09:14:30;;;;;;;2.80;2.60;;;;;;;;;;5110538;27;20466;-68
2023/10/29 09:16:56;;;;;;;2.70;2.33;;;;;;;;;;5114274;28;20522;-68
2023/10/29 09:19:23;;;;;;;3.10;2.80;;;;;;;;;;5110683;27;20514;-72
2023/10/29 09:21:51;;;;;;;4.30;2.50;;;;;;;;;;5112600;27;21237;-70
2023/10/29 09:24:17;;;;;;;2.20;2.10;;;;;;;;;;5112527;27;20489;-68
2023/10/29 09:26:44;;;;;;;3.00;2.57;;;;;;;;;;5116127;27;20491;-70
2023/10/29 09:29:10;;;;;;;3.23;2.73;;;;;;;;;;5111263;27;20480;-69
2023/10/29 09:31:39;;;;;;;3.43;3.23;;;;;;;;;;5111966;27;20466;-66
2023/10/29 09:34:06;;;;;;;3.50;2.70;;;;;;;;;;5109451;27;20466;-63
2023/10/29 09:36:32;;;;;;;3.93;2.47;;;;;;;;;;5108478;27;20454;-64
2023/10/29 09:38:59;;;;;;;2.90;2.40;;;;;;;;;;5117179;27;20473;-64
2023/10/29 09:41:25;;;;;;;3.20;2.90;;;;;;;;;;5118612;27;20477;-65
2023/10/29 09:43:53;;;;;;;2.27;2.07;;;;;;;;;;5112955;27;20446;-65
2023/10/29 09:46:20;;;;;;;2.10;1.90;;;;;;;;;;5115519;27;20503;-65
2023/10/29 09:48:49;;;;;;;5.83;2.50;;;;;;;;;;5114954;28;20485;-64
2023/10/29 09:51:15;;;;;;;2.70;2.43;;;;;;;;;;5104955;27;20478;-65
2023/10/29 09:53:42;;;;;;;2.73;2.20;;;;;;;;;;5115757;27;20451;-64
2023/10/29 09:56:08;;;;;;;2.90;2.40;;;;;;;;;;5118625;27;20449;-63
2023/10/29 09:58:35;;;;;;;2.90;2.70;;;;;;;;;;5123626;27;20484;-65
2023/10/29 10:01:03;;;;;;;3.97;2.77;;;;;;;;;;5127364;27;20515;-63
2023/10/29 10:03:30;;;;;;;2.73;2.47;;;;;;;;;;5118396;27;20472;-64
2023/10/29 10:05:58;;;;;;;2.70;2.50;;;;;;;;;;5114390;28;20478;-62
2023/10/29 10:08:25;;;;;;;2.67;2.43;;;;;;;;;;5108417;27;20476;-64
2023/10/29 10:10:55;;;;;;;2.50;2.40;;;;;;;;;;5116419;27;20453;-63
2023/10/29 10:13:35;;;;;;;2.47;2.23;;;;;;;;;;5109132;28;20442;-61
2023/10/29 10:16:05;;;;;;;2.70;2.20;;;;;;;;;;5115574;27;20488;-64
2023/10/29 10:18:47;;;;;;;5.43;2.53;;;;;;;;;;5115160;27;20473;-63
2023/10/29 10:21:14;;;;;;;4.40;2.80;;;;;;;;;;5111249;28;20451;-63
2023/10/29 10:23:46;;;;;;;3.30;3.03;;;;;;;;;;5113239;28;21110;-63
2023/10/29 10:26:13;;;;;;;3.50;3.10;;;;;;;;;;5071757;28;20448;-63
2023/10/29 10:28:51;;;;;;;2.57;2.47;;;;;;;;;;5071683;28;20491;-64
2023/10/29 10:31:17;;;;;;;5.30;3.17;;;;;;;;;;5068445;28;20528;-63
2023/10/29 10:33:44;;;;;;;4.80;2.60;;;;;;;;;;5069735;28;20460;-63
2023/10/29 10:36:11;;;;;;;3.10;2.80;;;;;;;;;;5075143;28;20473;-62
2023/10/29 10:38:51;;;;;;;3.07;2.87;;;;;;;;;;5081160;28;20482;-62
2023/10/29 10:41:17;;;;;;;2.97;2.73;;;;;;;;;;5073133;28;20544;-62
2023/10/29 10:43:44;;;;;;;4.07;2.80;;;;;;;;;;5060156;28;20464;-69
2023/10/29 10:46:12;;;;;;;2.70;2.60;;;;;;;;;;5067551;28;20952;-67
2023/10/29 10:48:41;;;;;;;2.83;2.70;;;;;;;;;;5075712;28;20454;-71
2023/10/29 10:51:10;;;;;;;3.37;3.07;;;;;;;;;;5072886;28;20464;-72
2023/10/29 10:53:37;;;;;;;3.20;3.00;;;;;;;;;;5079660;28;20484;-69
2023/10/29 10:56:08;;;;;;;3.70;3.40;;;;;;;;;;5081026;28;21002;-70
2023/10/29 10:58:35;;;;;;;3.50;3.30;;;;;;;;;;5080347;28;20479;-70
2023/10/29 11:01:02;;;;;;;4.00;3.70;;;;;;;;;;5072464;28;20539;-71
2023/10/29 11:03:30;;;;;;;3.70;3.50;;;;;;;;;;5071261;28;20444;-69
2023/10/29 11:05:56;;;;;;;3.30;3.00;;;;;;;;;;5073366;28;20474;-68
2023/10/29 11:08:23;;;;;;;3.50;3.20;;;;;;;;;;5084650;28;20501;-70
2023/10/29 11:10:53;;;;;;;3.97;3.77;;;;;;;;;;5090075;28;20451;-69
2023/10/29 11:16:24;;;;;;;4.00;3.70;;;;;;;;;;5050355;28;20565;-70
2023/10/29 11:18:51;;;;;;;3.47;3.27;;;;;;;;;;5066891;28;20475;-69
2023/10/29 11:21:30;;;;;;;3.67;3.40;;;;;;;;;;5076452;28;20444;-69
2023/10/29 11:24:12;;;;;;;3.60;3.40;;;;;;;;;;5083352;28;20463;-69
2023/10/29 11:26:41;;;;;;;4.33;4.00;;;;;;;;;;5118930;27;20473;-69
2023/10/29 11:29:07;;;;;;;3.40;3.20;;;;;;;;;;5122045;27;20449;-68
2023/10/29 11:31:35;;;;;;;3.67;3.37;;;;;;;;;;5119076;27;20458;-67
2023/10/29 11:34:22;;;;;;;4.00;3.63;;;;;;;;;;5117315;27;20438;-69
2023/10/29 11:36:50;;;;;;;4.37;4.10;;;;;;;;;;5126233;27;20458;-72
2023/10/29 11:39:34;;;;;;;4.40;4.10;;;;;;;;;;5120746;27;20986;-70
2023/10/29 11:42:00;;;;;;;3.73;3.53;;;;;;;;;;5124900;27;20529;-70
2023/10/29 11:44:28;;;;;;;3.80;3.60;;;;;;;;;;5115830;27;20464;-70
2023/10/29 11:47:03;;;;;;;3.73;3.53;;;;;;;;;;5118541;27;21190;-70
2023/10/29 11:49:33;;;;;;;3.60;3.40;;;;;;;;;;5115864;28;20482;-71
2023/10/29 11:52:02;;;;;;;3.30;3.10;;;;;;;;;;5117600;27;20461;-71
2023/10/29 11:54:28;;;;;;;3.37;3.17;;;;;;;;;;5119055;27;20446;-71
2023/10/29 11:56:57;;;;;;;4.20;3.90;;;;;;;;;;5116130;28;20477;-70
2023/10/29 11:59:24;;;;;;;3.10;2.90;;;;;;;;;;5118420;27;20532;-70
2023/10/29 12:01:51;;;;;;;3.60;3.20;;;;;;;;;;5126139;27;20458;-70
2023/10/29 12:04:19;;;;;;;3.67;3.47;;;;;;;;;;5112980;27;20881;-70
2023/10/29 12:06:46;;;;;;;3.37;3.07;;;;;;;;;;5115117;27;20461;-71
2023/10/29 12:09:16;;;;;;;2.90;2.70;;;;;;;;;;5120556;27;20533;-70
2023/10/29 12:11:45;;;;;;;2.73;2.53;;;;;;;;;;5125421;27;20453;-71
2023/10/29 12:14:12;;;;;;;4.00;3.70;;;;;;;;;;5113851;27;20535;-70
2023/10/29 12:16:39;;;;;;;3.50;3.30;;;;;;;;;;5108751;27;20474;-70
2023/10/29 12:19:06;;;;;;;7.60;2.70;;;;;;;;;;5114056;28;20495;-70
2023/10/29 12:21:37;;;;;;;3.77;3.57;;;;;;;;;;5122463;27;20454;-70
2023/10/29 12:24:04;;;;;;;3.90;3.60;;;;;;;;;;5114860;27;20938;-71
2023/10/29 12:26:30;;;;;;;3.50;3.30;;;;;;;;;;5115213;28;20462;-69
2023/10/29 12:29:00;;;;;;;3.40;3.20;;;;;;;;;;5111175;28;20446;-70
2023/10/29 12:31:29;;;;;;;6.00;3.10;;;;;;;;;;5110246;27;20465;-70
2023/10/29 12:33:56;;;;;;;3.30;3.10;;;;;;;;;;5120502;27;20519;-70
2023/10/29 12:36:23;;;;;;;3.60;3.30;;;;;;;;;;5122855;27;20467;-68
2023/10/29 12:38:51;;;;;;;3.40;3.20;;;;;;;;;;5118917;27;20527;-69
2023/10/29 12:41:18;;;;;;;3.27;2.97;;;;;;;;;;5122131;27;20517;-69
2023/10/29 12:43:47;;;;;;;3.53;3.30;;;;;;;;;;5115693;28;20448;-68
2023/10/29 12:46:13;;;;;;;3.47;3.30;;;;;;;;;;5121198;27;20855;-70
2023/10/29 12:48:59;;;;;;;3.40;3.20;;;;;;;;;;5116213;28;20885;-68
2023/10/29 12:51:26;;;;;;;3.63;3.33;;;;;;;;;;5112293;27;20484;-69
2023/10/29 12:54:08;;;;;;;3.57;3.37;;;;;;;;;;5123966;27;20453;-68
2023/10/29 12:56:34;;;;;;;3.73;2.77;;;;;;;;;;5117841;27;20455;-69
2023/10/29 12:59:03;;;;;;;3.70;3.40;;;;;;;;;;5128526;27;20470;-70
2023/10/29 13:01:29;;;;;;;3.00;2.80;;;;;;;;;;5124338;27;20454;-67
2023/10/29 13:03:58;;;;;;;2.83;2.73;;;;;;;;;;5114292;28;20478;-67
2023/10/29 13:06:25;;;;;;;2.83;2.60;;;;;;;;;;5116339;27;20498;-68
2023/10/29 13:08:52;;;;;;;3.13;2.80;;;;;;;;;;5122673;27;20511;-67
2023/10/29 13:11:19;;;;;;;2.87;2.67;;;;;;;;;;5115504;28;20517;-69
2023/10/29 13:13:46;;;;;;;2.80;2.60;;;;;;;;;;5116296;27;20449;-66
2023/10/29 13:16:13;;;;;;;3.10;2.90;;;;;;;;;;5121009;27;20450;-71
2023/10/29 13:18:39;;;;;;;2.10;2.00;;;;;;;;;;5119075;27;20950;-71
2023/10/29 13:21:07;;;;;;;2.80;2.60;;;;;;;;;;5117092;27;20458;-72
2023/10/29 13:23:34;;;;;;;2.30;2.20;;;;;;;;;;5114180;28;20531;-72
2023/10/29 13:26:00;;;;;;;3.40;3.10;;;;;;;;;;5121846;27;20510;-72
2023/10/29 13:28:28;;;;;;;2.60;2.40;;;;;;;;;;5123248;27;20457;-71
2023/10/29 13:30:56;;;;;;;2.43;2.33;;;;;;;;;;5127937;27;20453;-71
2023/10/29 13:33:23;;;;;;;3.00;2.67;;;;;;;;;;5131996;27;20445;-72
2023/10/29 13:35:50;;;;;;;2.50;2.30;;;;;;;;;;5121258;27;20477;-70
2023/10/29 13:38:16;;;;;;;2.60;2.40;;;;;;;;;;5123372;27;20546;-72
2023/10/29 13:40:44;;;;;;;6.03;2.60;;;;;;;;;;5108950;28;20467;-71
2023/10/29 13:43:12;;;;;;;4.10;2.40;;;;;;;;;;5111971;27;20473;-70
2023/10/29 13:45:40;;;;;;;2.60;2.40;;;;;;;;;;5120004;27;20455;-72
2023/10/29 13:48:07;;;;;;;2.43;2.20;;;;;;;;;;5118271;27;20446;-71
2023/10/29 13:50:37;;;;;;;3.30;2.20;;;;;;;;;;5112483;28;20938;-70
2023/10/29 13:53:04;;;;;;;2.13;2.03;;;;;;;;;;5111315;27;20524;-70
2023/10/29 13:55:31;;;;;;;2.67;2.47;;;;;;;;;;5118462;27;20450;-71
2023/10/29 13:57:58;;;;;;;2.67;2.47;;;;;;;;;;5120249;27;20447;-69
2023/10/29 14:00:26;;;;;;;2.87;2.67;;;;;;;;;;5126063;27;21426;-71
2023/10/29 14:02:54;;;;;;;5.33;2.80;;;;;;;;;;5122685;27;20454;-69
2023/10/29 14:05:20;;;;;;;5.40;2.50;;;;;;;;;;5115981;28;20446;-70
2023/10/29 14:07:47;;;;;;;2.77;2.27;;;;;;;;;;5115899;28;20450;-72
2023/10/29 14:10:14;;;;;;;3.00;2.30;;;;;;;;;;5117310;27;20446;-69
2023/10/29 14:12:44;;;;;;;2.57;2.37;;;;;;;;;;5109351;28;20486;-71
2023/10/29 14:15:11;;;;;;;2.93;2.10;;;;;;;;;;5119041;27;20447;-70
2023/10/29 14:17:37;;;;;;;2.40;2.30;;;;;;;;;;5121310;27;20442;-70
2023/10/29 14:20:06;;;;;;;2.20;2.00;;;;;;;;;;5122556;27;20478;-71
2023/10/29 14:22:33;;;;;;;2.77;2.60;;;;;;;;;;5125569;27;20460;-71
2023/10/29 14:25:01;;;;;;;3.03;2.83;;;;;;;;;;5110611;27;20550;-70
2023/10/29 14:27:28;;;;;;;2.77;2.57;;;;;;;;;;5125626;27;20493;-71
2023/10/29 14:29:54;;;;;;;3.17;2.53;;;;;;;;;;5109722;28;20562;-70
2023/10/29 14:32:21;;;;;;;2.20;2.10;;;;;;;;;;5121357;27;20876;-72
2023/10/29 14:34:48;;;;;;;2.80;2.03;;;;;;;;;;5113905;27;20901;-70
2023/10/29 14:37:16;;;;;;;2.00;1.80;;;;;;;;;;5114253;28;20457;-70
2023/10/29 14:39:43;;;;;;;2.83;2.53;;;;;;;;;;5117209;28;20477;-72
2023/10/29 14:42:09;;;;;;;2.23;2.13;;;;;;;;;;5118388;28;20453;-71
2023/10/29 14:44:36;;;;;;;2.03;1.93;;;;;;;;;;5118330;28;20463;-71
2023/10/29 14:47:03;;;;;;;2.00;1.90;;;;;;;;;;5124701;28;20508;-71